Saint Germain, WI (54558)

7:06 PM CST on December 19, 2014 (GMT -0600)
Ross Lake | Change Station
CLOSE
Current Station
Personal Weather Station
Location: Woodruff, WI
Elevation: 1640 ft
Nearby Weather Stations

Elev 1640 ft 45.96 °N, 89.60 °W | Updated 9 minutes ago

Overcast
Overcast
19.8 °F
Feels Like 20 °F
N
0.0
Wind Variable Wind from North
Gusts 0.0 mph

Today
High -- | Low -- °F
--% Chance of Precip.
Yesterday
High -- | Low -- °F
Precip. -- in
7:35 AM 4:14 PM
Waning Crescent, 5% visible
Pressure 30.20 in
Visibility 10.0 miles
Clouds Clear
Windchill 20 °F
Dew Point 17 °F
Humidity 90%
Rainfall 0.00 in
Snow Depth Not available.
UV 0 out of 12
Pollen .10 out of 12
Air Quality Not available.
Flu Activity Not available.
METAR KEGV 200055Z AUTO 00000KT 10SM CLR M08/M08 A3020 RMK AO2 T10801085

More Conditions Fewer Conditions

Pressure 30.20 in
Visibility 10.0 miles
Clouds Clear
Windchill 20 °F
Dew Point 17 °F
Humidity 90%
Rainfall 0.00 in
Snow Depth Not available.
UV 0 out of 12
Pollen .10 out of 12
Air Quality Not available.
Flu Activity Not available.
METAR KEGV 200055Z AUTO 00000KT 10SM CLR M08/M08 A3020 RMK AO2 T10801085

More Conditions Fewer Conditions

10-Day Weather Forecast

Almanac

Astronomy

Dec. 19, 2014 Rise Set
Actual Time
Civil Twilight
Nautical Twilight
Astronomical Twilight
Moon
Length of Visible Light
Length of Day
Tomorrow will be .
, % of the Moon is Illuminated

Today's Extremes

State Highs State Lows

Community

WunderPhotos

Upload Photos

1,779,095 photos uploaded!

WunderBlogs® & News

Nearby

Air Quality

  Air Quality AQ Index Pollutant
Not available.

Snow Depth

Station Depth Elevation

Earthquake Activity

City Distance Mag. Time & Date
Minimum magnitude displayed is 2.5.

Coastal Water Temperatures

Place Temperature

Nearby Weather Stations